sensor_id;sensor_type;location;lat;lon;timestamp;pressure;altitude;pressure_sealevel;temperature;humidity
3150;BME280;32503;47.748;8.960;2023-03-11T00:00:18;95842.47;;;7.77;49.99
3150;BME280;32503;47.748;8.960;2023-03-11T00:02:50;95848.03;;;7.65;49.24
3150;BME280;32503;47.748;8.960;2023-03-11T00:05:21;95843.00;;;7.63;48.97
3150;BME280;32503;47.748;8.960;2023-03-11T00:07:49;95848.75;;;7.62;49.29
3150;BME280;32503;47.748;8.960;2023-03-11T00:10:20;95844.88;;;7.59;48.98
3150;BME280;32503;47.748;8.960;2023-03-11T00:12:48;95835.25;;;7.58;49.37
3150;BME280;32503;47.748;8.960;2023-03-11T00:15:15;95841.75;;;7.57;50.31
3150;BME280;32503;47.748;8.960;2023-03-11T00:17:42;95848.75;;;7.38;50.39
3150;BME280;32503;47.748;8.960;2023-03-11T00:20:22;95864.16;;;7.42;50.54
3150;BME280;32503;47.748;8.960;2023-03-11T00:22:49;95859.97;;;7.44;49.61
3150;BME280;32503;47.748;8.960;2023-03-11T00:25:19;95856.34;;;7.33;50.01
3150;BME280;32503;47.748;8.960;2023-03-11T00:27:47;95804.88;;;7.11;49.57
3150;BME280;32503;47.748;8.960;2023-03-11T00:30:20;95866.38;;;7.36;50.23
3150;BME280;32503;47.748;8.960;2023-03-11T00:32:48;95832.13;;;7.33;50.40
3150;BME280;32503;47.748;8.960;2023-03-11T00:35:19;95854.47;;;7.37;50.69
3150;BME280;32503;47.748;8.960;2023-03-11T00:37:48;95859.44;;;7.35;50.60
3150;BME280;32503;47.748;8.960;2023-03-11T00:40:21;95862.41;;;7.30;50.45
3150;BME280;32503;47.748;8.960;2023-03-11T00:42:48;95856.09;;;7.18;50.16
3150;BME280;32503;47.748;8.960;2023-03-11T00:45:16;95825.69;;;6.95;50.54
3150;BME280;32503;47.748;8.960;2023-03-11T00:47:43;95851.47;;;7.19;50.55
3150;BME280;32503;47.748;8.960;2023-03-11T00:50:14;95852.94;;;7.16;50.57
3150;BME280;32503;47.748;8.960;2023-03-11T00:52:43;95849.84;;;7.14;51.03
3150;BME280;32503;47.748;8.960;2023-03-11T00:55:14;95816.91;;;6.98;51.05
3150;BME280;32503;47.748;8.960;2023-03-11T00:57:43;95863.84;;;7.24;50.31
3150;BME280;32503;47.748;8.960;2023-03-11T01:00:15;95867.72;;;7.26;50.93
3150;BME280;32503;47.748;8.960;2023-03-11T01:02:44;95880.94;;;7.35;50.33
3150;BME280;32503;47.748;8.960;2023-03-11T01:05:12;95874.44;;;7.36;49.91
3150;BME280;32503;47.748;8.960;2023-03-11T01:07:40;95869.84;;;7.36;49.97
3150;BME280;32503;47.748;8.960;2023-03-11T01:10:09;95873.34;;;7.40;50.63
3150;BME280;32503;47.748;8.960;2023-03-11T01:12:36;95871.81;;;7.39;50.12
3150;BME280;32503;47.748;8.960;2023-03-11T01:15:06;95880.13;;;7.31;50.32
3150;BME280;32503;47.748;8.960;2023-03-11T01:17:34;95867.38;;;7.28;50.55
3150;BME280;32503;47.748;8.960;2023-03-11T01:20:01;95878.84;;;7.25;51.27
3150;BME280;32503;47.748;8.960;2023-03-11T01:22:29;95871.91;;;7.24;50.61
3150;BME280;32503;47.748;8.960;2023-03-11T01:24:57;95855.78;;;7.24;50.93
3150;BME280;32503;47.748;8.960;2023-03-11T01:27:24;95840.38;;;7.20;50.84
3150;BME280;32503;47.748;8.960;2023-03-11T01:29:51;95867.25;;;7.20;51.36
3150;BME280;32503;47.748;8.960;2023-03-11T01:32:19;95878.69;;;7.17;50.74
3150;BME280;32503;47.748;8.960;2023-03-11T01:34:46;95870.56;;;7.14;51.66
3150;BME280;32503;47.748;8.960;2023-03-11T01:37:13;95869.06;;;7.16;51.09
3150;BME280;32503;47.748;8.960;2023-03-11T01:39:40;95851.81;;;7.17;51.05
3150;BME280;32503;47.748;8.960;2023-03-11T01:42:07;95857.91;;;7.14;50.96
3150;BME280;32503;47.748;8.960;2023-03-11T01:44:34;95851.84;;;6.98;51.87
3150;BME280;32503;47.748;8.960;2023-03-11T01:47:35;95875.19;;;7.13;51.19
3150;BME280;32503;47.748;8.960;2023-03-11T01:50:07;95810.88;;;6.81;51.48
3150;BME280;32503;47.748;8.960;2023-03-11T01:52:37;95853.25;;;7.11;51.53
3150;BME280;32503;47.748;8.960;2023-03-11T01:55:05;95851.41;;;7.15;51.06
3150;BME280;32503;47.748;8.960;2023-03-11T01:57:32;95855.91;;;7.31;51.31
3150;BME280;32503;47.748;8.960;2023-03-11T02:00:03;95859.38;;;7.31;51.38
3150;BME280;32503;47.748;8.960;2023-03-11T02:02:40;95854.75;;;7.32;51.56
3150;BME280;32503;47.748;8.960;2023-03-11T02:05:08;95863.97;;;7.31;51.81
3150;BME280;32503;47.748;8.960;2023-03-11T02:07:37;95875.97;;;7.37;50.95
3150;BME280;32503;47.748;8.960;2023-03-11T02:10:06;95878.97;;;7.32;50.96
3150;BME280;32503;47.748;8.960;2023-03-11T02:12:35;95899.22;;;7.26;51.30
3150;BME280;32503;47.748;8.960;2023-03-11T02:15:04;95887.97;;;7.20;51.42
3150;BME280;32503;47.748;8.960;2023-03-11T02:17:33;95882.97;;;7.18;51.74
3150;BME280;32503;47.748;8.960;2023-03-11T02:20:26;95872.22;;;7.18;51.82
3150;BME280;32503;47.748;8.960;2023-03-11T02:22:56;95861.09;;;7.20;51.66
3150;BME280;32503;47.748;8.960;2023-03-11T02:25:30;95842.19;;;7.16;50.99
3150;BME280;32503;47.748;8.960;2023-03-11T02:28:00;95864.56;;;7.20;51.26
3150;BME280;32503;47.748;8.960;2023-03-11T02:30:30;95870.00;;;7.24;51.43
3150;BME280;32503;47.748;8.960;2023-03-11T02:32:59;95864.97;;;7.22;51.76
3150;BME280;32503;47.748;8.960;2023-03-11T02:35:27;95872.22;;;7.18;51.99
3150;BME280;32503;47.748;8.960;2023-03-11T02:37:54;95865.91;;;7.11;51.32
3150;BME280;32503;47.748;8.960;2023-03-11T02:40:54;95878.16;;;7.08;50.78
3150;BME280;32503;47.748;8.960;2023-03-11T02:43:30;95879.56;;;7.02;50.82
3150;BME280;32503;47.748;8.960;2023-03-11T02:46:00;95874.47;;;6.97;51.56
3150;BME280;32503;47.748;8.960;2023-03-11T02:48:28;95877.59;;;6.99;51.42
3150;BME280;32503;47.748;8.960;2023-03-11T02:50:56;95884.94;;;7.02;51.04
3150;BME280;32503;47.748;8.960;2023-03-11T02:53:26;95884.09;;;6.98;51.17
3150;BME280;32503;47.748;8.960;2023-03-11T02:55:54;95903.19;;;6.93;50.80
3150;BME280;32503;47.748;8.960;2023-03-11T02:58:21;95897.81;;;6.93;50.13
3150;BME280;32503;47.748;8.960;2023-03-11T03:00:50;95911.09;;;6.86;49.95
3150;BME280;32503;47.748;8.960;2023-03-11T03:03:17;95922.91;;;6.81;50.24
3150;BME280;32503;47.748;8.960;2023-03-11T03:05:44;95839.38;;;6.31;49.60
3150;BME280;32503;47.748;8.960;2023-03-11T03:08:11;95895.03;;;6.70;49.85
3150;BME280;32503;47.748;8.960;2023-03-11T03:10:38;95836.00;;;6.34;49.95
3150;BME280;32503;47.748;8.960;2023-03-11T03:13:05;95893.94;;;6.71;50.55
3150;BME280;32503;47.748;8.960;2023-03-11T03:15:32;95884.31;;;6.70;51.25
3150;BME280;32503;47.748;8.960;2023-03-11T03:18:00;95892.78;;;6.72;50.80
3150;BME280;32503;47.748;8.960;2023-03-11T03:20:27;95878.22;;;6.73;51.26
3150;BME280;32503;47.748;8.960;2023-03-11T03:22:54;95892.28;;;6.86;51.16
3150;BME280;32503;47.748;8.960;2023-03-11T03:25:21;95896.47;;;6.83;51.17
3150;BME280;32503;47.748;8.960;2023-03-11T03:27:49;95903.88;;;6.90;51.65
3150;BME280;32503;47.748;8.960;2023-03-11T03:30:16;95900.78;;;6.88;51.12
3150;BME280;32503;47.748;8.960;2023-03-11T03:32:43;95892.38;;;6.89;51.03
3150;BME280;32503;47.748;8.960;2023-03-11T03:35:11;95880.50;;;6.90;50.24
3150;BME280;32503;47.748;8.960;2023-03-11T03:37:38;95868.97;;;6.90;50.55
3150;BME280;32503;47.748;8.960;2023-03-11T03:40:07;95868.53;;;6.88;49.94
3150;BME280;32503;47.748;8.960;2023-03-11T03:42:35;95877.28;;;6.84;49.91
3150;BME280;32503;47.748;8.960;2023-03-11T03:45:05;95870.19;;;6.73;49.84
3150;BME280;32503;47.748;8.960;2023-03-11T03:47:33;95864.44;;;6.74;49.58
3150;BME280;32503;47.748;8.960;2023-03-11T03:50:01;95830.50;;;6.47;50.11
3150;BME280;32503;47.748;8.960;2023-03-11T03:52:30;95886.63;;;6.71;50.51
3150;BME280;32503;47.748;8.960;2023-03-11T03:54:57;95891.31;;;6.74;51.09
3150;BME280;32503;47.748;8.960;2023-03-11T03:57:24;95908.13;;;6.71;51.04
3150;BME280;32503;47.748;8.960;2023-03-11T03:59:51;95898.06;;;6.68;51.35
3150;BME280;32503;47.748;8.960;2023-03-11T04:02:18;95888.19;;;6.72;51.76
3150;BME280;32503;47.748;8.960;2023-03-11T04:04:45;95894.41;;;6.76;51.11
3150;BME280;32503;47.748;8.960;2023-03-11T04:07:12;95888.97;;;6.73;51.90
3150;BME280;32503;47.748;8.960;2023-03-11T04:09:42;95891.25;;;6.71;51.68
3150;BME280;32503;47.748;8.960;2023-03-11T04:12:12;95907.78;;;6.73;51.41
3150;BME280;32503;47.748;8.960;2023-03-11T04:14:39;95912.66;;;6.67;51.41
3150;BME280;32503;47.748;8.960;2023-03-11T04:17:07;95927.63;;;6.68;51.33
3150;BME280;32503;47.748;8.960;2023-03-11T04:19:36;95927.28;;;6.70;51.13
3150;BME280;32503;47.748;8.960;2023-03-11T04:22:03;95931.81;;;6.66;51.08
3150;BME280;32503;47.748;8.960;2023-03-11T04:24:30;95928.31;;;6.65;51.04
3150;BME280;32503;47.748;8.960;2023-03-11T04:26:59;95919.41;;;6.61;51.42
3150;BME280;32503;47.748;8.960;2023-03-11T04:29:26;95920.09;;;6.58;51.08
3150;BME280;32503;47.748;8.960;2023-03-11T04:31:53;95910.25;;;6.62;51.24
3150;BME280;32503;47.748;8.960;2023-03-11T04:34:20;95912.78;;;6.55;50.79
3150;BME280;32503;47.748;8.960;2023-03-11T04:36:50;95910.00;;;6.51;51.42
3150;BME280;32503;47.748;8.960;2023-03-11T04:39:17;95890.38;;;6.31;50.60
3150;BME280;32503;47.748;8.960;2023-03-11T04:41:44;95915.13;;;6.40;51.21
3150;BME280;32503;47.748;8.960;2023-03-11T04:44:12;95914.69;;;6.38;50.84
3150;BME280;32503;47.748;8.960;2023-03-11T04:46:39;95923.44;;;6.35;51.27
3150;BME280;32503;47.748;8.960;2023-03-11T04:49:06;95918.44;;;6.34;50.69
3150;BME280;32503;47.748;8.960;2023-03-11T04:51:34;95916.13;;;6.32;50.83
3150;BME280;32503;47.748;8.960;2023-03-11T04:54:01;95909.00;;;6.24;50.23
3150;BME280;32503;47.748;8.960;2023-03-11T04:56:28;95922.09;;;6.25;51.33
3150;BME280;32503;47.748;8.960;2023-03-11T04:58:55;95930.66;;;6.15;50.85
3150;BME280;32503;47.748;8.960;2023-03-11T05:01:24;95937.53;;;6.13;50.51
3150;BME280;32503;47.748;8.960;2023-03-11T05:03:51;95925.75;;;6.01;50.78
3150;BME280;32503;47.748;8.960;2023-03-11T05:06:18;95934.94;;;6.00;50.17
3150;BME280;32503;47.748;8.960;2023-03-11T05:08:45;95944.78;;;5.96;50.35
3150;BME280;32503;47.748;8.960;2023-03-11T05:11:12;95949.16;;;5.88;50.45
3150;BME280;32503;47.748;8.960;2023-03-11T05:13:39;95953.34;;;5.86;50.74
3150;BME280;32503;47.748;8.960;2023-03-11T05:16:06;95956.69;;;5.83;50.14
3150;BME280;32503;47.748;8.960;2023-03-11T05:18:35;95953.69;;;5.84;50.27
3150;BME280;32503;47.748;8.960;2023-03-11T05:21:02;95958.88;;;5.77;50.46
3150;BME280;32503;47.748;8.960;2023-03-11T05:23:29;95970.03;;;5.79;50.02
3150;BME280;32503;47.748;8.960;2023-03-11T05:25:56;95950.53;;;5.66;49.71
3150;BME280;32503;47.748;8.960;2023-03-11T05:28:23;95973.72;;;5.75;49.36
3150;BME280;32503;47.748;8.960;2023-03-11T05:30:50;95969.94;;;5.76;49.77
3150;BME280;32503;47.748;8.960;2023-03-11T05:33:17;95970.19;;;5.70;50.22
3150;BME280;32503;47.748;8.960;2023-03-11T05:35:46;95977.00;;;5.68;49.86
3150;BME280;32503;47.748;8.960;2023-03-11T05:38:13;95964.81;;;5.70;49.69
3150;BME280;32503;47.748;8.960;2023-03-11T05:40:40;95964.03;;;5.70;50.34
3150;BME280;32503;47.748;8.960;2023-03-11T05:43:07;95959.44;;;5.70;49.74
3150;BME280;32503;47.748;8.960;2023-03-11T05:45:34;95962.03;;;5.67;49.48
3150;BME280;32503;47.748;8.960;2023-03-11T05:48:01;95956.84;;;5.58;49.86
3150;BME280;32503;47.748;8.960;2023-03-11T05:50:28;95965.22;;;5.57;49.23
3150;BME280;32503;47.748;8.960;2023-03-11T05:52:57;95950.06;;;5.48;49.35
3150;BME280;32503;47.748;8.960;2023-03-11T05:55:24;95946.59;;;5.48;49.43
3150;BME280;32503;47.748;8.960;2023-03-11T05:57:51;95938.03;;;5.42;49.19
3150;BME280;32503;47.748;8.960;2023-03-11T06:00:19;95951.88;;;5.44;49.57
3150;BME280;32503;47.748;8.960;2023-03-11T06:02:46;95943.94;;;5.48;49.25
3150;BME280;32503;47.748;8.960;2023-03-11T06:05:14;95956.66;;;5.51;49.50
3150;BME280;32503;47.748;8.960;2023-03-11T06:07:41;95956.66;;;5.51;49.12
3150;BME280;32503;47.748;8.960;2023-03-11T06:10:11;95964.78;;;5.55;49.31
3150;BME280;32503;47.748;8.960;2023-03-11T06:12:38;95968.44;;;5.62;49.77
3150;BME280;32503;47.748;8.960;2023-03-11T06:15:07;95970.00;;;5.63;49.68
3150;BME280;32503;47.748;8.960;2023-03-11T06:17:34;95971.53;;;5.64;50.13
3150;BME280;32503;47.748;8.960;2023-03-11T06:20:01;95975.44;;;5.67;49.77
3150;BME280;32503;47.748;8.960;2023-03-11T06:22:29;95945.31;;;5.42;49.74
3150;BME280;32503;47.748;8.960;2023-03-11T06:24:56;95989.88;;;5.62;49.81
3150;BME280;32503;47.748;8.960;2023-03-11T06:27:25;95989.69;;;5.55;50.01
3150;BME280;32503;47.748;8.960;2023-03-11T06:29:52;96000.84;;;5.57;50.46
3150;BME280;32503;47.748;8.960;2023-03-11T06:32:20;95999.53;;;5.51;49.70
3150;BME280;32503;47.748;8.960;2023-03-11T06:34:50;96015.63;;;5.51;49.31
3150;BME280;32503;47.748;8.960;2023-03-11T06:37:17;96009.19;;;5.40;48.29
3150;BME280;32503;47.748;8.960;2023-03-11T06:39:45;96015.78;;;5.42;47.91
3150;BME280;32503;47.748;8.960;2023-03-11T06:42:13;96007.00;;;5.29;47.46
3150;BME280;32503;47.748;8.960;2023-03-11T06:44:41;96025.25;;;5.40;47.52
3150;BME280;32503;47.748;8.960;2023-03-11T06:47:08;96026.06;;;5.40;47.31
3150;BME280;32503;47.748;8.960;2023-03-11T06:49:38;96032.19;;;5.41;47.14
3150;BME280;32503;47.748;8.960;2023-03-11T06:52:07;95997.78;;;5.15;47.46
3150;BME280;32503;47.748;8.960;2023-03-11T06:54:34;96036.09;;;5.43;47.78
3150;BME280;32503;47.748;8.960;2023-03-11T06:57:05;96050.81;;;5.49;47.46
3150;BME280;32503;47.748;8.960;2023-03-11T06:59:32;96031.53;;;5.44;47.08
3150;BME280;32503;47.748;8.960;2023-03-11T07:02:01;96046.53;;;5.61;46.84
3150;BME280;32503;47.748;8.960;2023-03-11T07:04:29;96006.97;;;5.42;47.31
3150;BME280;32503;47.748;8.960;2023-03-11T07:06:56;96029.31;;;5.62;47.38
3150;BME280;32503;47.748;8.960;2023-03-11T07:09:23;96051.75;;;5.69;46.94
3150;BME280;32503;47.748;8.960;2023-03-11T07:11:52;96058.88;;;5.78;46.55
3150;BME280;32503;47.748;8.960;2023-03-11T07:14:20;96051.50;;;5.75;46.42
3150;BME280;32503;47.748;8.960;2023-03-11T07:16:48;96053.84;;;5.76;46.88
3150;BME280;32503;47.748;8.960;2023-03-11T07:19:16;96065.78;;;5.79;47.00
3150;BME280;32503;47.748;8.960;2023-03-11T07:21:43;96059.06;;;5.85;47.03
3150;BME280;32503;47.748;8.960;2023-03-11T07:24:12;96062.50;;;5.85;47.14
3150;BME280;32503;47.748;8.960;2023-03-11T07:26:40;96071.78;;;5.88;47.36
3150;BME280;32503;47.748;8.960;2023-03-11T07:29:07;96064.16;;;5.90;47.31
3150;BME280;32503;47.748;8.960;2023-03-11T07:31:37;96076.97;;;6.09;49.59
3150;BME280;32503;47.748;8.960;2023-03-11T07:34:05;96075.66;;;6.19;47.96
3150;BME280;32503;47.748;8.960;2023-03-11T07:36:39;96073.88;;;6.23;47.00
3150;BME280;32503;47.748;8.960;2023-03-11T07:39:07;96074.13;;;6.18;46.64
3150;BME280;32503;47.748;8.960;2023-03-11T07:41:35;96071.69;;;6.13;46.25
3150;BME280;32503;47.748;8.960;2023-03-11T07:44:03;96073.94;;;6.11;46.10
3150;BME280;32503;47.748;8.960;2023-03-11T07:46:31;96087.78;;;6.13;46.29
3150;BME280;32503;47.748;8.960;2023-03-11T07:49:00;96081.53;;;6.08;45.70
3150;BME280;32503;47.748;8.960;2023-03-11T07:51:31;96046.50;;;5.89;45.79
3150;BME280;32503;47.748;8.960;2023-03-11T07:54:00;96053.75;;;6.01;45.62
3150;BME280;32503;47.748;8.960;2023-03-11T07:56:30;96020.19;;;5.79;45.74
3150;BME280;32503;47.748;8.960;2023-03-11T07:58:59;96075.75;;;6.06;45.43
3150;BME280;32503;47.748;8.960;2023-03-11T08:01:29;96079.66;;;6.09;44.96
3150;BME280;32503;47.748;8.960;2023-03-11T08:04:03;96089.94;;;6.07;45.08
3150;BME280;32503;47.748;8.960;2023-03-11T08:06:32;96095.47;;;5.98;44.89
3150;BME280;32503;47.748;8.960;2023-03-11T08:09:04;96100.25;;;5.93;44.71
3150;BME280;32503;47.748;8.960;2023-03-11T08:11:31;96103.28;;;5.91;44.79
3150;BME280;32503;47.748;8.960;2023-03-11T08:13:59;96091.69;;;5.87;43.71
3150;BME280;32503;47.748;8.960;2023-03-11T08:16:26;96087.09;;;5.87;44.49
3150;BME280;32503;47.748;8.960;2023-03-11T08:18:54;96095.69;;;5.93;44.11
3150;BME280;32503;47.748;8.960;2023-03-11T08:21:23;96107.41;;;6.01;44.17
3150;BME280;32503;47.748;8.960;2023-03-11T08:23:52;96100.56;;;6.03;43.63
3150;BME280;32503;47.748;8.960;2023-03-11T08:26:24;96108.72;;;6.07;43.38
3150;BME280;32503;47.748;8.960;2023-03-11T08:28:51;96116.09;;;6.10;44.20
3150;BME280;32503;47.748;8.960;2023-03-11T08:31:21;96120.09;;;6.16;44.09
3150;BME280;32503;47.748;8.960;2023-03-11T08:33:54;96102.50;;;6.19;43.75
3150;BME280;32503;47.748;8.960;2023-03-11T08:36:21;96094.97;;;6.24;43.19
3150;BME280;32503;47.748;8.960;2023-03-11T08:38:48;96104.00;;;6.32;43.40
3150;BME280;32503;47.748;8.960;2023-03-11T08:41:16;96114.03;;;6.35;42.59
3150;BME280;32503;47.748;8.960;2023-03-11T08:43:44;96116.13;;;6.42;42.66
3150;BME280;32503;47.748;8.960;2023-03-11T08:46:18;96091.69;;;6.31;42.62
3150;BME280;32503;47.748;8.960;2023-03-11T08:48:46;96111.50;;;6.55;43.08
3150;BME280;32503;47.748;8.960;2023-03-11T08:51:14;96118.31;;;6.68;43.06
3150;BME280;32503;47.748;8.960;2023-03-11T08:53:41;96123.69;;;7.00;42.30
3150;BME280;32503;47.748;8.960;2023-03-11T08:56:08;96123.31;;;7.17;41.28
3150;BME280;32503;47.748;8.960;2023-03-11T08:58:36;96134.19;;;7.40;40.73
3150;BME280;32503;47.748;8.960;2023-03-11T09:01:05;96136.56;;;7.62;39.23
3150;BME280;32503;47.748;8.960;2023-03-11T09:03:34;96132.34;;;7.80;37.94
3150;BME280;32503;47.748;8.960;2023-03-11T09:06:04;96114.34;;;7.84;37.69
3150;BME280;32503;47.748;8.960;2023-03-11T09:08:33;96128.91;;;8.03;37.34
3150;BME280;32503;47.748;8.960;2023-03-11T09:11:00;96128.47;;;8.20;36.78
3150;BME280;32503;47.748;8.960;2023-03-11T09:13:27;96136.78;;;8.11;35.93
3150;BME280;32503;47.748;8.960;2023-03-11T09:15:54;96133.09;;;8.20;35.52
3150;BME280;32503;47.748;8.960;2023-03-11T09:18:22;96130.38;;;8.39;35.98
3150;BME280;32503;47.748;8.960;2023-03-11T09:20:49;96128.59;;;8.47;36.02
3150;BME280;32503;47.748;8.960;2023-03-11T09:23:17;96149.28;;;8.62;34.51
3150;BME280;32503;47.748;8.960;2023-03-11T09:25:44;96144.72;;;8.66;35.02
3150;BME280;32503;47.748;8.960;2023-03-11T09:28:11;96143.78;;;8.78;34.91
3150;BME280;32503;47.748;8.960;2023-03-11T09:30:38;96145.13;;;9.15;35.10
3150;BME280;32503;47.748;8.960;2023-03-11T09:33:05;96140.84;;;9.67;34.42
3150;BME280;32503;47.748;8.960;2023-03-11T09:35:34;96140.25;;;10.11;33.54
3150;BME280;32503;47.748;8.960;2023-03-11T09:38:01;96144.97;;;10.52;32.38
3150;BME280;32503;47.748;8.960;2023-03-11T09:40:50;96143.72;;;10.87;32.36
3150;BME280;32503;47.748;8.960;2023-03-11T09:43:34;96144.47;;;10.84;31.31
3150;BME280;32503;47.748;8.960;2023-03-11T09:49:13;96143.13;;;10.63;31.17
3150;BME280;32503;47.748;8.960;2023-03-11T09:51:51;96140.59;;;10.81;32.00
3150;BME280;32503;47.748;8.960;2023-03-11T09:54:19;96153.25;;;11.18;31.69
3150;BME280;32503;47.748;8.960;2023-03-11T09:56:48;96149.59;;;11.48;31.01
3150;BME280;32503;47.748;8.960;2023-03-11T09:59:20;96146.28;;;11.80;30.01
3150;BME280;32503;47.748;8.960;2023-03-11T10:01:53;96134.44;;;12.06;30.25
3150;BME280;32503;47.748;8.960;2023-03-11T10:04:25;96144.25;;;12.46;29.51
3150;BME280;32503;47.748;8.960;2023-03-11T10:06:55;96128.72;;;12.32;28.19
3150;BME280;32503;47.748;8.960;2023-03-11T10:09:34;96136.75;;;12.00;27.97
3150;BME280;32503;47.748;8.960;2023-03-11T10:12:17;96129.41;;;11.38;30.69
3150;BME280;32503;47.748;8.960;2023-03-11T10:15:02;96152.53;;;10.39;32.00
3150;BME280;32503;47.748;8.960;2023-03-11T10:18:04;96147.16;;;9.48;33.60
3150;BME280;32503;47.748;8.960;2023-03-11T10:20:46;96161.00;;;9.46;34.04
3150;BME280;32503;47.748;8.960;2023-03-11T10:23:25;96151.03;;;8.74;34.68
3150;BME280;32503;47.748;8.960;2023-03-11T10:26:02;96165.56;;;8.69;36.55
3150;BME280;32503;47.748;8.960;2023-03-11T10:28:35;96148.50;;;8.62;37.33
3150;BME280;32503;47.748;8.960;2023-03-11T10:31:18;96143.41;;;8.37;37.02
3150;BME280;32503;47.748;8.960;2023-03-11T10:33:50;96154.16;;;7.94;37.70
3150;BME280;32503;47.748;8.960;2023-03-11T10:36:24;96153.72;;;8.12;38.29
3150;BME280;32503;47.748;8.960;2023-03-11T10:38:55;96150.34;;;8.38;37.82
3150;BME280;32503;47.748;8.960;2023-03-11T10:41:29;96131.06;;;8.79;37.27
3150;BME280;32503;47.748;8.960;2023-03-11T10:44:03;96151.59;;;9.10;36.37
3150;BME280;32503;47.748;8.960;2023-03-11T10:46:31;96160.47;;;9.10;35.38
3150;BME280;32503;47.748;8.960;2023-03-11T10:48:59;96151.50;;;9.03;35.46
3150;BME280;32503;47.748;8.960;2023-03-11T10:51:31;96136.34;;;8.71;35.31
3150;BME280;32503;47.748;8.960;2023-03-11T10:54:02;96148.22;;;8.90;35.66
3150;BME280;32503;47.748;8.960;2023-03-11T10:58:48;96139.03;;;9.44;35.20
3150;BME280;32503;47.748;8.960;2023-03-11T11:01:17;96148.25;;;9.43;34.58
3150;BME280;32503;47.748;8.960;2023-03-11T11:03:48;96136.28;;;9.41;35.14
3150;BME280;32503;47.748;8.960;2023-03-11T11:06:23;96144.66;;;9.62;34.98
3150;BME280;32503;47.748;8.960;2023-03-11T11:09:13;96152.41;;;9.37;34.32
3150;BME280;32503;47.748;8.960;2023-03-11T11:11:41;96138.78;;;9.03;35.37
3150;BME280;32503;47.748;8.960;2023-03-11T11:14:09;96156.63;;;9.11;35.55
3150;BME280;32503;47.748;8.960;2023-03-11T11:16:37;96145.63;;;8.97;35.30
3150;BME280;32503;47.748;8.960;2023-03-11T11:19:09;96149.75;;;8.91;35.99
3150;BME280;32503;47.748;8.960;2023-03-11T11:21:39;96127.50;;;9.21;36.26
3150;BME280;32503;47.748;8.960;2023-03-11T11:24:21;96142.00;;;9.66;36.14
3150;BME280;32503;47.748;8.960;2023-03-11T11:27:04;96135.44;;;9.67;35.86
3150;BME280;32503;47.748;8.960;2023-03-11T11:29:32;96130.13;;;9.71;36.01
3150;BME280;32503;47.748;8.960;2023-03-11T11:32:22;96141.22;;;9.65;35.77
3150;BME280;32503;47.748;8.960;2023-03-11T11:34:57;96141.00;;;8.98;36.81
3150;BME280;32503;47.748;8.960;2023-03-11T11:37:25;96138.06;;;9.06;38.00
3150;BME280;32503;47.748;8.960;2023-03-11T11:40:00;96139.47;;;8.73;37.86
3150;BME280;32503;47.748;8.960;2023-03-11T11:42:36;96115.13;;;8.47;39.49
3150;BME280;32503;47.748;8.960;2023-03-11T11:45:13;96127.66;;;8.16;40.18
3150;BME280;32503;47.748;8.960;2023-03-11T11:47:47;96126.75;;;8.08;39.50
3150;BME280;32503;47.748;8.960;2023-03-11T11:50:22;96117.53;;;8.52;38.79
3150;BME280;32503;47.748;8.960;2023-03-11T11:52:55;96121.31;;;8.47;40.79
3150;BME280;32503;47.748;8.960;2023-03-11T11:55:26;96099.78;;;8.47;40.55
3150;BME280;32503;47.748;8.960;2023-03-11T11:57:55;96123.75;;;9.02;40.03
3150;BME280;32503;47.748;8.960;2023-03-11T12:00:31;96120.97;;;9.22;39.71
3150;BME280;32503;47.748;8.960;2023-03-11T12:03:27;96113.38;;;9.31;39.33
3150;BME280;32503;47.748;8.960;2023-03-11T12:06:10;96113.59;;;9.19;38.34
3150;BME280;32503;47.748;8.960;2023-03-11T12:08:51;96099.38;;;9.22;38.14
3150;BME280;32503;47.748;8.960;2023-03-11T12:11:26;96113.13;;;9.13;40.02
3150;BME280;32503;47.748;8.960;2023-03-11T12:14:01;96078.16;;;8.44;41.34
3150;BME280;32503;47.748;8.960;2023-03-11T12:16:41;96100.06;;;8.88;41.67
3150;BME280;32503;47.748;8.960;2023-03-11T12:19:32;96095.38;;;9.12;42.18
3150;BME280;32503;47.748;8.960;2023-03-11T12:25:30;96091.84;;;8.35;42.55
3150;BME280;32503;47.748;8.960;2023-03-11T12:28:11;96100.53;;;8.48;42.67
3150;BME280;32503;47.748;8.960;2023-03-11T12:30:43;96100.53;;;8.48;42.44
3150;BME280;32503;47.748;8.960;2023-03-11T12:33:18;96099.69;;;8.90;41.90
3150;BME280;32503;47.748;8.960;2023-03-11T12:35:53;96097.06;;;9.20;41.40
3150;BME280;32503;47.748;8.960;2023-03-11T12:38:28;96094.16;;;9.33;41.18
3150;BME280;32503;47.748;8.960;2023-03-11T12:41:12;96102.88;;;9.53;41.34
3150;BME280;32503;47.748;8.960;2023-03-11T12:44:04;96091.31;;;9.82;40.51
3150;BME280;32503;47.748;8.960;2023-03-11T12:47:22;96092.66;;;9.99;40.79
3150;BME280;32503;47.748;8.960;2023-03-11T12:49:52;96092.19;;;10.28;40.22
3150;BME280;32503;47.748;8.960;2023-03-11T12:52:26;96095.59;;;10.58;40.01
3150;BME280;32503;47.748;8.960;2023-03-11T12:55:30;96060.13;;;10.63;38.54
3150;BME280;32503;47.748;8.960;2023-03-11T12:58:39;96081.72;;;10.63;39.29
3150;BME280;32503;47.748;8.960;2023-03-11T13:01:43;96073.59;;;9.85;38.83
3150;BME280;32503;47.748;8.960;2023-03-11T13:04:38;96081.81;;;9.96;38.82
3150;BME280;32503;47.748;8.960;2023-03-11T13:07:45;96082.34;;;10.46;38.91
3150;BME280;32503;47.748;8.960;2023-03-11T13:10:19;96073.38;;;10.79;38.82
3150;BME280;32503;47.748;8.960;2023-03-11T13:12:48;96050.72;;;10.98;38.26
3150;BME280;32503;47.748;8.960;2023-03-11T13:15:43;96062.22;;;10.88;34.16
3150;BME280;32503;47.748;8.960;2023-03-11T13:18:21;96062.31;;;10.99;35.28
3150;BME280;32503;47.748;8.960;2023-03-11T13:20:52;96066.69;;;11.18;36.59
3150;BME280;32503;47.748;8.960;2023-03-11T13:23:34;96068.00;;;11.42;35.69
3150;BME280;32503;47.748;8.960;2023-03-11T13:26:19;96059.16;;;11.56;37.18
3150;BME280;32503;47.748;8.960;2023-03-11T13:29:34;96061.81;;;10.82;36.48
3150;BME280;32503;47.748;8.960;2023-03-11T13:32:57;96068.84;;;10.94;38.86
3150;BME280;32503;47.748;8.960;2023-03-11T13:35:45;96063.38;;;10.84;38.85
3150;BME280;32503;47.748;8.960;2023-03-11T13:38:54;96065.72;;;10.92;38.23
3150;BME280;32503;47.748;8.960;2023-03-11T13:41:30;96074.34;;;11.09;39.55
3150;BME280;32503;47.748;8.960;2023-03-11T13:44:10;96072.16;;;11.29;38.62
3150;BME280;32503;47.748;8.960;2023-03-11T13:46:41;96074.94;;;11.43;38.21
3150;BME280;32503;47.748;8.960;2023-03-11T13:49:25;96076.06;;;11.31;38.01
3150;BME280;32503;47.748;8.960;2023-03-11T13:51:55;96077.59;;;11.32;37.82